createdAt,value
2022-11-20T00:01:32.586Z,33.90
2022-11-20T00:04:00.906Z,33.38
2022-11-20T00:06:29.499Z,36.92
2022-11-20T00:08:59.324Z,35.03
2022-11-20T00:11:28.696Z,32.75
2022-11-20T00:13:59.073Z,38.08
2022-11-20T00:16:28.074Z,35.80
2022-11-20T00:18:55.669Z,34.63
2022-11-20T00:21:25.826Z,33.08
2022-11-20T00:23:55.250Z,35.88
2022-11-20T00:26:24.458Z,35.45
2022-11-20T00:29:02.258Z,33.55
2022-11-20T00:31:31.167Z,35.20
2022-11-20T00:33:58.629Z,32.63
2022-11-20T00:36:27.983Z,35.25
2022-11-20T00:38:57.309Z,33.83
2022-11-20T00:41:26.209Z,38.95
2022-11-20T00:43:54.864Z,38.92
2022-11-20T00:46:24.715Z,33.83
2022-11-20T00:48:52.007Z,36.90
2022-11-20T00:51:21.815Z,36.65
2022-11-20T00:53:49.360Z,38.55
2022-11-20T00:56:19.173Z,36.33
2022-11-20T00:58:48.019Z,38.60
2022-11-20T01:01:21.179Z,36.75
2022-11-20T01:03:50.832Z,37.83
2022-11-20T01:06:23.348Z,34.47
2022-11-20T01:08:52.154Z,37.97
2022-11-20T01:11:24.129Z,37.47
2022-11-20T01:16:29.065Z,42.28
2022-11-20T01:18:59.259Z,37.80
2022-11-20T01:21:38.262Z,39.03
2022-11-20T01:24:08.940Z,40.15
2022-11-20T01:26:38.516Z,43.67
2022-11-20T01:29:07.646Z,40.30
2022-11-20T01:31:37.889Z,36.83
2022-11-20T01:34:11.737Z,42.13
2022-11-20T01:36:39.718Z,42.00
2022-11-20T01:39:21.220Z,40.28
2022-11-20T01:42:10.050Z,37.75
2022-11-20T01:44:49.894Z,40.67
2022-11-20T01:47:46.018Z,39.33
2022-11-20T01:50:15.449Z,39.35
2022-11-20T01:52:50.572Z,39.00
2022-11-20T01:55:28.021Z,37.78
2022-11-20T01:57:56.779Z,38.25
2022-11-20T02:00:24.353Z,37.00
2022-11-20T02:03:27.383Z,39.10
2022-11-20T02:06:07.479Z,39.75
2022-11-20T02:08:36.232Z,40.13
2022-11-20T02:11:03.629Z,37.35
2022-11-20T02:13:46.040Z,42.42
2022-11-20T02:16:20.844Z,40.10
2022-11-20T02:18:48.691Z,38.30
2022-11-20T02:21:31.166Z,43.10
2022-11-20T02:23:58.828Z,38.08
2022-11-20T02:26:28.802Z,38.72
2022-11-20T02:28:56.302Z,37.78
2022-11-20T02:31:23.490Z,42.05
2022-11-20T02:33:57.015Z,41.90
2022-11-20T02:36:27.273Z,38.42
2022-11-20T02:38:55.103Z,39.28
2022-11-20T02:41:23.200Z,41.58
2022-11-20T02:43:50.452Z,38.35
2022-11-20T02:46:17.688Z,39.47
2022-11-20T02:48:44.946Z,38.78
2022-11-20T02:51:12.140Z,40.30
2022-11-20T02:53:39.420Z,38.92
2022-11-20T02:56:07.246Z,39.55
2022-11-20T02:58:34.528Z,37.20
2022-11-20T03:01:01.893Z,37.83
2022-11-20T03:03:29.209Z,38.45
2022-11-20T03:05:56.488Z,43.60
2022-11-20T03:08:23.720Z,42.60
2022-11-20T03:10:51.210Z,41.97
2022-11-20T03:13:18.644Z,39.95
2022-11-20T03:15:45.955Z,40.42
2022-11-20T03:18:14.668Z,45.10
2022-11-20T03:20:41.955Z,41.38
2022-11-20T03:23:09.196Z,41.00
2022-11-20T03:25:36.655Z,43.97
2022-11-20T03:28:04.046Z,43.00
2022-11-20T03:30:31.396Z,39.40
2022-11-20T03:32:58.603Z,42.20
2022-11-20T03:35:26.864Z,43.90
2022-11-20T03:37:54.248Z,44.13
2022-11-20T03:40:21.500Z,40.47
2022-11-20T03:42:48.925Z,37.17
2022-11-20T03:45:19.887Z,43.40
2022-11-20T03:47:47.768Z,42.27
2022-11-20T03:50:15.828Z,44.08
2022-11-20T03:52:43.482Z,44.95
2022-11-20T03:55:11.020Z,40.55
2022-11-20T03:57:38.263Z,42.95
2022-11-20T04:00:06.701Z,45.17
2022-11-20T04:02:33.956Z,41.75
2022-11-20T04:05:01.253Z,39.55
2022-11-20T04:07:28.691Z,40.40
2022-11-20T04:09:55.931Z,37.40
2022-11-20T04:12:23.167Z,40.55
2022-11-20T04:14:50.641Z,41.83
2022-11-20T04:17:17.825Z,43.40
2022-11-20T04:19:45.073Z,39.75
2022-11-20T04:22:13.275Z,40.45
2022-11-20T04:24:40.617Z,38.03
2022-11-20T04:27:08.099Z,37.00
2022-11-20T04:29:35.289Z,35.15
2022-11-20T04:32:02.596Z,36.17
2022-11-20T04:34:29.925Z,39.33
2022-11-20T04:36:58.281Z,41.38
2022-11-20T04:39:25.613Z,40.72
2022-11-20T04:42:12.944Z,43.00
2022-11-20T04:44:40.263Z,37.90
2022-11-20T04:47:07.525Z,38.03
2022-11-20T04:49:35.039Z,37.17
2022-11-20T04:52:02.528Z,35.22
2022-11-20T04:54:29.815Z,34.60
2022-11-20T04:56:57.140Z,32.40
2022-11-20T04:59:24.507Z,33.75
2022-11-20T05:01:52.097Z,37.53
2022-11-20T05:04:21.063Z,33.83
2022-11-20T05:06:48.328Z,34.85
2022-11-20T05:09:15.563Z,33.03
2022-11-20T05:11:42.893Z,35.33
2022-11-20T05:14:10.197Z,31.50
2022-11-20T05:16:37.968Z,36.35
2022-11-20T05:19:05.350Z,30.60
2022-11-20T05:21:33.476Z,34.50
2022-11-20T05:24:01.054Z,35.03
2022-11-20T05:26:28.349Z,32.70
2022-11-20T05:28:55.588Z,34.63
2022-11-20T05:31:27.561Z,29.98
2022-11-20T05:33:56.808Z,34.30
2022-11-20T05:36:24.815Z,32.38
2022-11-20T05:38:55.497Z,34.72
2022-11-20T05:41:26.275Z,33.33
2022-11-20T05:43:53.559Z,33.63
2022-11-20T05:46:27.739Z,33.63
2022-11-20T05:48:57.333Z,32.17
2022-11-20T05:51:24.961Z,31.42
2022-11-20T05:53:52.333Z,33.70
2022-11-20T05:56:21.627Z,33.97
2022-11-20T05:58:49.620Z,34.72
2022-11-20T06:01:36.959Z,34.83
2022-11-20T06:04:04.356Z,31.00
2022-11-20T06:06:31.709Z,32.25
2022-11-20T06:09:00.180Z,33.03
2022-11-20T06:11:27.537Z,30.27
2022-11-20T06:13:54.805Z,27.90
2022-11-20T06:16:22.902Z,27.00
2022-11-20T06:18:50.558Z,29.27
2022-11-20T06:21:22.491Z,29.88
2022-11-20T06:26:23.983Z,27.58
2022-11-20T06:28:52.560Z,28.65
2022-11-20T06:31:22.273Z,28.20
2022-11-20T06:33:50.025Z,27.42
2022-11-20T06:36:19.605Z,27.70
2022-11-20T06:38:47.679Z,25.73
2022-11-20T06:41:20.973Z,26.70
2022-11-20T06:43:49.648Z,26.13
2022-11-20T06:46:21.246Z,26.95
2022-11-20T06:48:49.839Z,23.33
2022-11-20T06:51:17.673Z,27.08
2022-11-20T06:53:45.106Z,28.35
2022-11-20T06:56:12.402Z,28.20
2022-11-20T06:58:39.768Z,29.23
2022-11-20T07:01:12.354Z,30.50
2022-11-20T07:03:40.501Z,27.30
2022-11-20T07:06:07.879Z,26.67
2022-11-20T07:08:35.994Z,28.98
2022-11-20T07:11:06.326Z,28.88
2022-11-20T07:13:34.187Z,39.95
2022-11-20T07:16:03.469Z,32.10
2022-11-20T07:18:31.131Z,29.92
2022-11-20T07:21:05.139Z,28.88
2022-11-20T07:23:32.421Z,26.05
2022-11-20T07:26:03.569Z,23.67
2022-11-20T07:28:31.120Z,25.00
2022-11-20T07:30:58.386Z,25.10
2022-11-20T07:33:25.935Z,33.78
2022-11-20T07:35:53.111Z,26.50
2022-11-20T07:38:20.592Z,27.40
2022-11-20T07:40:47.911Z,24.23
2022-11-20T07:43:15.215Z,25.70
2022-11-20T07:45:43.195Z,25.33
2022-11-20T07:48:10.517Z,25.10
2022-11-20T07:50:37.854Z,23.85
2022-11-20T07:53:08.839Z,25.63
2022-11-20T07:55:36.072Z,25.05
2022-11-20T07:58:03.434Z,26.13
2022-11-20T08:00:30.779Z,24.95
2022-11-20T08:02:58.039Z,23.50
2022-11-20T08:05:25.351Z,26.65
2022-11-20T08:07:52.890Z,24.10
2022-11-20T08:10:20.219Z,24.02
2022-11-20T08:13:07.404Z,22.23
2022-11-20T08:15:35.543Z,23.80
2022-11-20T08:21:02.419Z,22.55
2022-11-20T08:23:29.725Z,28.08
2022-11-20T08:25:56.978Z,23.67
2022-11-20T08:28:24.296Z,23.85
2022-11-20T08:30:51.716Z,24.35
2022-11-20T08:33:19.526Z,23.30
2022-11-20T08:35:46.965Z,24.42
2022-11-20T08:38:14.418Z,26.80
2022-11-20T08:40:41.737Z,21.98
2022-11-20T08:43:08.959Z,27.70
2022-11-20T08:45:36.332Z,26.50
2022-11-20T08:48:04.713Z,27.17
2022-11-20T08:50:33.957Z,26.33
2022-11-20T08:53:07.758Z,24.50
2022-11-20T08:55:36.858Z,25.27
2022-11-20T08:58:08.265Z,25.00
2022-11-20T09:00:35.852Z,24.20
2022-11-20T09:03:03.384Z,23.63
2022-11-20T09:05:30.834Z,26.60
2022-11-20T09:07:59.395Z,25.52
2022-11-20T09:10:27.789Z,23.27
2022-11-20T09:12:59.016Z,24.05
2022-11-20T09:15:26.989Z,23.63
2022-11-20T09:17:56.189Z,24.92
2022-11-20T09:20:23.940Z,25.08
2022-11-20T09:22:51.371Z,25.13
2022-11-20T09:25:19.292Z,26.90
2022-11-20T09:27:47.216Z,27.77
2022-11-20T09:30:16.418Z,26.10
2022-11-20T09:32:44.378Z,24.33
2022-11-20T09:35:12.183Z,19.73
2022-11-20T09:37:39.528Z,28.88
2022-11-20T09:40:07.989Z,28.48
2022-11-20T09:42:35.307Z,27.73
2022-11-20T09:45:43.932Z,26.67
2022-11-20T09:48:13.921Z,23.60
2022-11-20T09:51:17.643Z,26.02
2022-11-20T09:54:01.607Z,24.63
2022-11-20T09:56:29.974Z,24.63
2022-11-20T09:59:09.803Z,25.20
2022-11-20T10:01:41.899Z,29.08
2022-11-20T10:04:19.066Z,26.52
2022-11-20T10:07:31.279Z,25.15
2022-11-20T10:09:59.276Z,22.10
2022-11-20T10:12:29.565Z,24.60
2022-11-20T10:14:59.870Z,23.63
2022-11-20T10:18:15.231Z,25.13
2022-11-20T10:20:50.365Z,25.75
2022-11-20T10:23:26.471Z,25.30
2022-11-20T10:26:22.860Z,25.02
2022-11-20T10:29:09.083Z,26.90
2022-11-20T10:31:41.383Z,28.05
2022-11-20T10:34:54.632Z,25.75
2022-11-20T10:37:27.634Z,23.85
2022-11-20T10:40:01.616Z,28.92
2022-11-20T10:42:57.948Z,28.13
2022-11-20T10:45:25.408Z,24.10
2022-11-20T10:48:01.389Z,30.27
2022-11-20T10:50:32.020Z,36.40
2022-11-20T10:53:29.990Z,29.70
2022-11-20T10:56:08.566Z,28.27
2022-11-20T10:58:56.424Z,25.48
2022-11-20T11:01:24.710Z,28.13
2022-11-20T11:03:58.274Z,27.58
2022-11-20T11:06:36.203Z,29.05
2022-11-20T11:09:16.747Z,31.08
2022-11-20T11:11:45.536Z,23.85
2022-11-20T11:14:16.023Z,22.02
2022-11-20T11:16:54.904Z,23.98
2022-11-20T11:19:22.676Z,29.98
2022-11-20T11:21:56.256Z,29.98
2022-11-20T11:24:46.520Z,33.00
2022-11-20T11:27:18.946Z,24.98
2022-11-20T11:29:47.756Z,25.30
2022-11-20T11:32:16.624Z,22.52
2022-11-20T11:34:43.919Z,19.17
2022-11-20T11:37:36.037Z,21.23
2022-11-20T11:43:00.799Z,18.63
2022-11-20T11:45:28.638Z,17.85
2022-11-20T11:47:59.359Z,18.02
2022-11-20T11:50:28.915Z,16.50
2022-11-20T11:53:02.243Z,15.63
2022-11-20T11:55:46.886Z,17.25
2022-11-20T11:58:43.954Z,19.30
2022-11-20T12:01:33.955Z,15.43
2022-11-20T12:04:42.889Z,13.65
2022-11-20T12:10:18.557Z,18.27
2022-11-20T12:13:08.497Z,17.05
2022-11-20T12:15:36.639Z,18.27
2022-11-20T12:18:14.818Z,20.33
2022-11-20T12:21:11.793Z,17.80
2022-11-20T12:23:53.865Z,17.08
2022-11-20T12:26:41.710Z,17.42
2022-11-20T12:29:18.286Z,18.40
2022-11-20T12:32:04.951Z,16.70
2022-11-20T12:35:01.616Z,16.23
2022-11-20T12:37:37.813Z,14.25
2022-11-20T12:40:29.771Z,15.82
2022-11-20T12:43:31.172Z,15.77
2022-11-20T12:46:17.372Z,16.95
2022-11-20T12:49:15.067Z,16.75
2022-11-20T12:52:22.592Z,14.05
2022-11-20T12:55:04.437Z,14.50
2022-11-20T12:57:51.157Z,13.45
2022-11-20T13:00:22.265Z,13.82
2022-11-20T13:03:18.195Z,14.63
2022-11-20T13:06:09.615Z,15.95
2022-11-20T13:08:41.438Z,17.23
2022-11-20T13:11:30.076Z,17.65
2022-11-20T13:14:43.098Z,18.45
2022-11-20T13:17:25.935Z,17.15
2022-11-20T13:19:59.842Z,15.90
2022-11-20T13:22:45.717Z,16.35
2022-11-20T13:25:51.136Z,17.63
2022-11-20T13:28:18.896Z,19.42
2022-11-20T13:30:54.253Z,17.90
2022-11-20T13:33:31.848Z,17.13
2022-11-20T13:36:07.977Z,24.95
2022-11-20T13:38:52.099Z,20.00
2022-11-20T13:41:29.487Z,22.70
2022-11-20T13:44:21.243Z,23.20
2022-11-20T13:46:48.730Z,20.08
2022-11-20T13:49:45.143Z,20.23
2022-11-20T13:52:27.974Z,19.50
2022-11-20T13:55:33.886Z,20.40
2022-11-20T13:58:33.609Z,18.17
2022-11-20T14:01:24.143Z,17.83
2022-11-20T14:04:08.326Z,19.95
2022-11-20T14:06:45.149Z,18.90
2022-11-20T14:09:33.264Z,19.17
2022-11-20T14:12:01.101Z,18.70
2022-11-20T14:14:30.567Z,17.70
2022-11-20T14:17:19.953Z,18.92
2022-11-20T14:19:49.556Z,20.98
2022-11-20T14:22:24.579Z,21.88
2022-11-20T14:25:13.182Z,26.40
2022-11-20T14:27:43.147Z,20.33
2022-11-20T14:30:25.667Z,22.02
2022-11-20T14:32:56.540Z,20.23
2022-11-20T14:37:53.253Z,17.67
2022-11-20T14:40:30.846Z,16.02
2022-11-20T14:42:59.462Z,18.42
2022-11-20T14:45:27.619Z,21.05
2022-11-20T14:47:57.677Z,17.70
2022-11-20T14:50:30.409Z,19.17
2022-11-20T14:52:59.986Z,21.40
2022-11-20T14:55:37.079Z,21.70
2022-11-20T14:58:21.631Z,21.02
2022-11-20T15:01:04.480Z,27.77
2022-11-20T15:03:40.884Z,24.05
2022-11-20T15:06:12.835Z,22.67
2022-11-20T15:11:32.864Z,21.02
2022-11-20T15:14:05.649Z,20.67
2022-11-20T15:16:34.349Z,18.83
2022-11-20T15:19:17.971Z,18.17
2022-11-20T15:21:45.320Z,19.48
2022-11-20T15:24:12.825Z,20.17
2022-11-20T15:26:42.862Z,20.30
2022-11-20T15:29:15.753Z,20.85
2022-11-20T15:31:44.420Z,18.15
2022-11-20T15:34:20.773Z,20.45
2022-11-20T15:36:48.175Z,20.95
2022-11-20T15:39:15.558Z,23.15
2022-11-20T15:41:43.108Z,18.00
2022-11-20T15:44:10.779Z,20.27
2022-11-20T15:46:43.397Z,24.98
2022-11-20T15:49:14.546Z,24.23
2022-11-20T15:51:45.193Z,20.13
2022-11-20T15:54:19.214Z,25.02
2022-11-20T15:56:50.668Z,24.40
2022-11-20T15:59:18.165Z,27.40
2022-11-20T16:01:46.256Z,25.52
2022-11-20T16:04:17.872Z,24.45
2022-11-20T16:06:45.275Z,26.95
2022-11-20T16:09:12.590Z,23.63
2022-11-20T16:11:40.783Z,19.80
2022-11-20T16:14:29.842Z,21.15
2022-11-20T16:16:57.359Z,21.00
2022-11-20T16:19:24.681Z,19.88
2022-11-20T16:21:52.524Z,24.05
2022-11-20T16:24:20.821Z,18.70
2022-11-20T16:26:48.257Z,19.80
2022-11-20T16:29:15.797Z,18.55
2022-11-20T16:31:43.047Z,16.30
2022-11-20T16:34:23.940Z,21.02
2022-11-20T16:36:51.491Z,20.20
2022-11-20T16:39:23.736Z,20.30
2022-11-20T16:41:51.661Z,21.17
2022-11-20T16:44:19.240Z,19.75
2022-11-20T16:46:46.614Z,21.42
2022-11-20T16:49:14.949Z,21.65
2022-11-20T16:51:42.990Z,21.30
2022-11-20T16:54:15.009Z,19.92
2022-11-20T16:56:48.084Z,21.63
2022-11-20T16:59:15.378Z,21.35
2022-11-20T17:01:44.129Z,22.05
2022-11-20T17:04:11.728Z,22.33
2022-11-20T17:06:44.323Z,22.42
2022-11-20T17:09:12.909Z,21.30
2022-11-20T17:11:40.398Z,20.75
2022-11-20T17:14:08.209Z,21.95
2022-11-20T17:16:37.416Z,24.17
2022-11-20T17:19:05.747Z,22.33
2022-11-20T17:21:36.096Z,27.92
2022-11-20T17:24:06.462Z,31.05
2022-11-20T17:26:35.118Z,31.00
2022-11-20T17:29:09.795Z,29.90
2022-11-20T17:31:40.920Z,27.25
2022-11-20T17:34:12.417Z,28.60
2022-11-20T17:36:45.220Z,32.92
2022-11-20T17:39:15.817Z,33.40
2022-11-20T17:41:43.523Z,32.75
2022-11-20T17:44:12.530Z,36.28
2022-11-20T17:46:40.433Z,29.48
2022-11-20T17:49:07.987Z,31.75
2022-11-20T17:51:35.849Z,28.98
2022-11-20T17:54:07.317Z,32.33
2022-11-20T17:56:54.773Z,31.83
2022-11-20T17:59:22.595Z,31.85
2022-11-20T18:01:51.370Z,29.40
2022-11-20T18:04:18.966Z,33.22
2022-11-20T18:06:46.803Z,31.70
2022-11-20T18:09:14.317Z,30.05
2022-11-20T18:11:43.759Z,29.27
2022-11-20T18:14:36.710Z,30.73
2022-11-20T18:17:14.928Z,31.55
2022-11-20T18:20:07.211Z,30.75
2022-11-20T18:22:35.480Z,27.60
2022-11-20T18:25:04.794Z,28.52
2022-11-20T18:27:32.315Z,28.67
2022-11-20T18:29:59.547Z,30.85
2022-11-20T18:32:27.465Z,32.03
2022-11-20T18:34:55.040Z,30.70
2022-11-20T18:37:22.499Z,31.70
2022-11-20T18:39:50.615Z,28.25
2022-11-20T18:42:36.486Z,30.17
2022-11-20T18:45:06.763Z,26.77
2022-11-20T18:47:38.031Z,26.75
2022-11-20T18:50:07.336Z,30.05
2022-11-20T18:52:44.552Z,22.75
2022-11-20T18:55:12.838Z,21.33
2022-11-20T18:57:40.453Z,21.88
2022-11-20T19:00:11.717Z,21.42
2022-11-20T19:02:42.698Z,22.37
2022-11-20T19:05:12.623Z,20.13
2022-11-20T19:07:40.438Z,21.88
2022-11-20T19:10:11.353Z,17.42
2022-11-20T19:12:38.862Z,18.83
2022-11-20T19:15:06.632Z,16.42
2022-11-20T19:17:34.260Z,14.93
2022-11-20T19:20:01.808Z,15.00
2022-11-20T19:22:30.205Z,14.57
2022-11-20T19:24:57.718Z,19.27
2022-11-20T19:27:25.266Z,17.08
2022-11-20T19:29:52.746Z,17.25
2022-11-20T19:32:21.749Z,17.40
2022-11-20T19:34:49.200Z,19.40
2022-11-20T19:37:16.727Z,21.13
2022-11-20T19:39:43.953Z,17.58
2022-11-20T19:42:11.301Z,17.30
2022-11-20T19:44:38.829Z,16.85
2022-11-20T19:47:13.006Z,18.73
2022-11-20T19:49:41.964Z,15.85
2022-11-20T19:52:09.617Z,14.30
2022-11-20T19:54:37.179Z,15.10
2022-11-20T19:57:04.576Z,19.40
2022-11-20T19:59:32.073Z,13.65
2022-11-20T20:01:59.569Z,14.05
2022-11-20T20:04:27.556Z,13.60
2022-11-20T20:06:55.102Z,14.57
2022-11-20T20:09:23.851Z,15.15
2022-11-20T20:11:51.513Z,14.32
2022-11-20T20:14:19.303Z,15.35
2022-11-20T20:16:47.129Z,14.40
2022-11-20T20:19:16.507Z,14.50
2022-11-20T20:21:44.483Z,17.35
2022-11-20T20:24:12.325Z,14.82
2022-11-20T20:26:39.895Z,15.48
2022-11-20T20:29:07.186Z,16.02
2022-11-20T20:31:35.369Z,13.77
2022-11-20T20:34:05.489Z,12.38
2022-11-20T20:36:33.581Z,12.38
2022-11-20T20:39:02.727Z,12.07
2022-11-20T20:41:31.731Z,12.32
2022-11-20T20:44:17.625Z,14.00
2022-11-20T20:46:45.067Z,13.68
2022-11-20T20:49:13.444Z,11.70
2022-11-20T20:51:41.011Z,11.55
2022-11-20T20:54:08.462Z,16.35
2022-11-20T20:56:35.968Z,13.90
2022-11-20T20:59:04.482Z,14.35
2022-11-20T21:01:32.390Z,10.90
2022-11-20T21:04:00.085Z,7.57
2022-11-20T21:06:27.905Z,8.75
2022-11-20T21:08:57.402Z,8.35
2022-11-20T21:11:24.795Z,9.07
2022-11-20T21:13:52.095Z,8.45
2022-11-20T21:16:22.467Z,6.55
2022-11-20T21:18:49.972Z,9.88
2022-11-20T21:21:36.793Z,5.55
2022-11-20T21:24:04.678Z,7.70
2022-11-20T21:26:31.987Z,10.68
2022-11-20T21:28:59.496Z,8.35
2022-11-20T21:31:27.571Z,8.07
2022-11-20T21:33:56.595Z,7.82
2022-11-20T21:36:26.716Z,7.72
2022-11-20T21:38:55.516Z,6.15
2022-11-20T21:41:24.134Z,5.18
2022-11-20T21:44:23.545Z,5.43
2022-11-20T21:46:41.846Z,4.38
2022-11-20T21:49:10.255Z,5.68
2022-11-20T21:51:37.866Z,5.32
2022-11-20T21:54:05.287Z,5.75
2022-11-20T21:56:32.969Z,5.75
2022-11-20T21:59:00.621Z,4.85
2022-11-20T22:01:30.139Z,5.45
2022-11-20T22:04:02.716Z,7.47
2022-11-20T22:06:32.876Z,7.35
2022-11-20T22:09:01.527Z,4.78
2022-11-20T22:11:28.809Z,4.93
2022-11-20T22:14:14.555Z,7.50
2022-11-20T22:16:42.108Z,4.35
2022-11-20T22:19:09.459Z,4.72
2022-11-20T22:21:39.549Z,5.22
2022-11-20T22:24:06.923Z,4.97
2022-11-20T22:26:40.137Z,4.45
2022-11-20T22:29:08.944Z,5.70
2022-11-20T22:31:36.688Z,5.43
2022-11-20T22:34:04.197Z,4.63
2022-11-20T22:36:32.290Z,5.32
2022-11-20T22:39:03.305Z,4.88
2022-11-20T22:41:31.361Z,6.70
2022-11-20T22:44:04.176Z,4.30
2022-11-20T22:46:34.177Z,3.50
2022-11-20T22:49:04.467Z,5.13
2022-11-20T22:51:35.804Z,5.03
2022-11-20T22:54:04.186Z,5.47
2022-11-20T22:56:31.624Z,6.00
2022-11-20T22:58:59.074Z,4.50
2022-11-20T23:01:28.602Z,6.18
2022-11-20T23:04:01.320Z,4.35
2022-11-20T23:06:29.522Z,5.35
2022-11-20T23:08:57.092Z,4.93
2022-11-20T23:11:28.694Z,6.03
2022-11-20T23:14:16.127Z,8.38
2022-11-20T23:16:43.642Z,3.85
2022-11-20T23:19:14.331Z,5.60
2022-11-20T23:21:43.064Z,5.38
2022-11-20T23:24:11.324Z,4.38
2022-11-20T23:26:40.235Z,4.75
2022-11-20T23:29:07.773Z,4.25
2022-11-20T23:31:36.245Z,4.63
2022-11-20T23:34:04.208Z,4.55
2022-11-20T23:36:31.560Z,4.57
2022-11-20T23:38:58.795Z,3.92
2022-11-20T23:41:26.222Z,5.32
2022-11-20T23:43:54.038Z,3.75
2022-11-20T23:46:21.668Z,3.80
2022-11-20T23:48:49.168Z,6.85
2022-11-20T23:51:17.649Z,5.90
2022-11-20T23:53:45.043Z,4.18
2022-11-20T23:56:14.833Z,3.70
2022-11-20T23:58:42.487Z,3.78
